sensor_id;sensor_type;location;lat;lon;timestamp;P1;durP1;ratioP1;P2;durP2;ratioP2
21206;SDS011;10761;48.532;8.026;2022-11-15T00:00:04;5.00;;;1.92;;
21206;SDS011;10761;48.532;8.026;2022-11-15T00:02:30;3.70;;;1.70;;
21206;SDS011;10761;48.532;8.026;2022-11-15T00:04:55;3.60;;;1.70;;
21206;SDS011;10761;48.532;8.026;2022-11-15T00:07:21;2.53;;;1.58;;
21206;SDS011;10761;48.532;8.026;2022-11-15T00:09:47;2.38;;;1.40;;
21206;SDS011;10761;48.532;8.026;2022-11-15T00:12:12;4.55;;;1.60;;
21206;SDS011;10761;48.532;8.026;2022-11-15T00:14:38;2.33;;;1.40;;
21206;SDS011;10761;48.532;8.026;2022-11-15T00:17:03;6.15;;;1.75;;
21206;SDS011;10761;48.532;8.026;2022-11-15T00:19:29;6.22;;;1.85;;
21206;SDS011;10761;48.532;8.026;2022-11-15T00:21:55;1.98;;;1.40;;
21206;SDS011;10761;48.532;8.026;2022-11-15T00:24:20;2.25;;;1.40;;
21206;SDS011;10761;48.532;8.026;2022-11-15T00:26:46;3.42;;;1.90;;
21206;SDS011;10761;48.532;8.026;2022-11-15T00:29:11;2.67;;;1.50;;
21206;SDS011;10761;48.532;8.026;2022-11-15T00:31:37;4.15;;;1.70;;
21206;SDS011;10761;48.532;8.026;2022-11-15T00:34:03;2.60;;;1.60;;
21206;SDS011;10761;48.532;8.026;2022-11-15T00:36:28;5.00;;;1.80;;
21206;SDS011;10761;48.532;8.026;2022-11-15T00:38:57;3.22;;;1.67;;
21206;SDS011;10761;48.532;8.026;2022-11-15T00:41:22;6.00;;;1.63;;
21206;SDS011;10761;48.532;8.026;2022-11-15T00:43:48;4.70;;;1.60;;
21206;SDS011;10761;48.532;8.026;2022-11-15T00:46:14;3.35;;;1.50;;
21206;SDS011;10761;48.532;8.026;2022-11-15T00:48:39;3.25;;;1.38;;
21206;SDS011;10761;48.532;8.026;2022-11-15T00:51:05;1.45;;;1.20;;
21206;SDS011;10761;48.532;8.026;2022-11-15T00:53:30;3.83;;;1.30;;
21206;SDS011;10761;48.532;8.026;2022-11-15T00:55:56;3.25;;;1.90;;
21206;SDS011;10761;48.532;8.026;2022-11-15T00:58:22;1.77;;;1.40;;
21206;SDS011;10761;48.532;8.026;2022-11-15T01:00:47;2.13;;;1.40;;
21206;SDS011;10761;48.532;8.026;2022-11-15T01:03:13;3.35;;;1.33;;
21206;SDS011;10761;48.532;8.026;2022-11-15T01:05:38;2.90;;;1.40;;
21206;SDS011;10761;48.532;8.026;2022-11-15T01:08:05;3.60;;;1.50;;
21206;SDS011;10761;48.532;8.026;2022-11-15T01:10:31;3.40;;;1.70;;
21206;SDS011;10761;48.532;8.026;2022-11-15T01:12:56;5.38;;;2.33;;
21206;SDS011;10761;48.532;8.026;2022-11-15T01:15:22;3.40;;;1.48;;
21206;SDS011;10761;48.532;8.026;2022-11-15T01:17:48;3.53;;;1.30;;
21206;SDS011;10761;48.532;8.026;2022-11-15T01:20:13;1.52;;;1.35;;
21206;SDS011;10761;48.532;8.026;2022-11-15T01:22:39;3.80;;;1.50;;
21206;SDS011;10761;48.532;8.026;2022-11-15T01:25:04;8.13;;;1.40;;
21206;SDS011;10761;48.532;8.026;2022-11-15T01:27:30;3.25;;;1.50;;
21206;SDS011;10761;48.532;8.026;2022-11-15T01:29:56;1.95;;;1.50;;
21206;SDS011;10761;48.532;8.026;2022-11-15T01:32:21;2.95;;;1.55;;
21206;SDS011;10761;48.532;8.026;2022-11-15T01:34:47;1.60;;;1.35;;
21206;SDS011;10761;48.532;8.026;2022-11-15T01:37:12;1.98;;;1.40;;
21206;SDS011;10761;48.532;8.026;2022-11-15T01:39:38;2.05;;;1.40;;
21206;SDS011;10761;48.532;8.026;2022-11-15T01:42:04;2.63;;;1.35;;
21206;SDS011;10761;48.532;8.026;2022-11-15T01:47:09;3.10;;;1.50;;
21206;SDS011;10761;48.532;8.026;2022-11-15T01:49:55;2.40;;;1.50;;
21206;SDS011;10761;48.532;8.026;2022-11-15T01:52:23;2.28;;;1.70;;
21206;SDS011;10761;48.532;8.026;2022-11-15T01:54:53;3.33;;;2.08;;
21206;SDS011;10761;48.532;8.026;2022-11-15T01:57:26;5.43;;;2.00;;
21206;SDS011;10761;48.532;8.026;2022-11-15T01:59:52;4.47;;;1.70;;
21206;SDS011;10761;48.532;8.026;2022-11-15T02:02:18;2.60;;;1.90;;
21206;SDS011;10761;48.532;8.026;2022-11-15T02:04:45;3.10;;;1.73;;
21206;SDS011;10761;48.532;8.026;2022-11-15T02:07:13;5.28;;;2.25;;
21206;SDS011;10761;48.532;8.026;2022-11-15T02:09:41;5.53;;;2.28;;
21206;SDS011;10761;48.532;8.026;2022-11-15T02:12:08;3.15;;;2.17;;
21206;SDS011;10761;48.532;8.026;2022-11-15T02:14:36;4.15;;;2.20;;
21206;SDS011;10761;48.532;8.026;2022-11-15T02:28:28;5.88;;;3.28;;
21206;SDS011;10761;48.532;8.026;2022-11-15T02:36:29;5.63;;;3.42;;
21206;SDS011;10761;48.532;8.026;2022-11-15T02:39:20;6.32;;;3.55;;
21206;SDS011;10761;48.532;8.026;2022-11-15T02:41:59;6.65;;;3.33;;
21206;SDS011;10761;48.532;8.026;2022-11-15T02:44:53;5.55;;;2.60;;
21206;SDS011;10761;48.532;8.026;2022-11-15T02:47:22;4.97;;;2.75;;
21206;SDS011;10761;48.532;8.026;2022-11-15T02:49:50;6.38;;;3.90;;
21206;SDS011;10761;48.532;8.026;2022-11-15T02:52:19;4.63;;;3.58;;
21206;SDS011;10761;48.532;8.026;2022-11-15T02:54:53;6.35;;;3.47;;
21206;SDS011;10761;48.532;8.026;2022-11-15T02:57:20;8.52;;;4.25;;
21206;SDS011;10761;48.532;8.026;2022-11-15T03:00:10;9.60;;;4.63;;
21206;SDS011;10761;48.532;8.026;2022-11-15T03:15:44;4.65;;;3.90;;
21206;SDS011;10761;48.532;8.026;2022-11-15T03:18:19;8.27;;;4.03;;
21206;SDS011;10761;48.532;8.026;2022-11-15T03:20:53;10.23;;;4.00;;
21206;SDS011;10761;48.532;8.026;2022-11-15T03:23:20;7.70;;;3.83;;
21206;SDS011;10761;48.532;8.026;2022-11-15T03:25:47;3.35;;;2.97;;
21206;SDS011;10761;48.532;8.026;2022-11-15T03:28:17;3.38;;;2.25;;
21206;SDS011;10761;48.532;8.026;2022-11-15T03:30:52;3.22;;;1.95;;
21206;SDS011;10761;48.532;8.026;2022-11-15T03:33:20;1.40;;;1.30;;
21206;SDS011;10761;48.532;8.026;2022-11-15T03:35:47;4.93;;;1.30;;
21206;SDS011;10761;48.532;8.026;2022-11-15T03:38:20;1.27;;;0.90;;
21206;SDS011;10761;48.532;8.026;2022-11-15T03:40:54;4.63;;;1.20;;
21206;SDS011;10761;48.532;8.026;2022-11-15T03:46:13;1.27;;;1.00;;
21206;SDS011;10761;48.532;8.026;2022-11-15T03:48:43;1.10;;;1.00;;
21206;SDS011;10761;48.532;8.026;2022-11-15T03:51:14;1.80;;;0.95;;
21206;SDS011;10761;48.532;8.026;2022-11-15T03:53:40;1.35;;;1.17;;
21206;SDS011;10761;48.532;8.026;2022-11-15T03:56:06;1.60;;;1.00;;
21206;SDS011;10761;48.532;8.026;2022-11-15T03:58:32;1.13;;;0.98;;
21206;SDS011;10761;48.532;8.026;2022-11-15T04:00:58;1.63;;;1.20;;
21206;SDS011;10761;48.532;8.026;2022-11-15T04:03:24;1.00;;;0.90;;
21206;SDS011;10761;48.532;8.026;2022-11-15T04:05:50;2.65;;;0.80;;
21206;SDS011;10761;48.532;8.026;2022-11-15T04:08:16;2.85;;;1.00;;
21206;SDS011;10761;48.532;8.026;2022-11-15T04:10:41;1.67;;;1.08;;
21206;SDS011;10761;48.532;8.026;2022-11-15T04:13:07;2.05;;;0.90;;
21206;SDS011;10761;48.532;8.026;2022-11-15T04:15:33;1.95;;;0.90;;
21206;SDS011;10761;48.532;8.026;2022-11-15T04:17:58;3.90;;;1.20;;
21206;SDS011;10761;48.532;8.026;2022-11-15T04:23:14;1.88;;;0.93;;
21206;SDS011;10761;48.532;8.026;2022-11-15T04:26:06;1.55;;;0.82;;
21206;SDS011;10761;48.532;8.026;2022-11-15T04:28:37;1.33;;;0.95;;
21206;SDS011;10761;48.532;8.026;2022-11-15T04:31:23;2.15;;;1.08;;
21206;SDS011;10761;48.532;8.026;2022-11-15T04:33:49;1.52;;;0.95;;
21206;SDS011;10761;48.532;8.026;2022-11-15T04:36:15;1.95;;;0.80;;
21206;SDS011;10761;48.532;8.026;2022-11-15T04:38:59;1.10;;;0.65;;
21206;SDS011;10761;48.532;8.026;2022-11-15T04:41:24;4.03;;;0.80;;
21206;SDS011;10761;48.532;8.026;2022-11-15T04:43:50;2.95;;;0.80;;
21206;SDS011;10761;48.532;8.026;2022-11-15T04:46:16;0.90;;;0.80;;
21206;SDS011;10761;48.532;8.026;2022-11-15T04:48:42;1.05;;;0.70;;
21206;SDS011;10761;48.532;8.026;2022-11-15T04:51:07;1.70;;;0.80;;
21206;SDS011;10761;48.532;8.026;2022-11-15T04:53:33;2.05;;;0.93;;
21206;SDS011;10761;48.532;8.026;2022-11-15T04:55:59;1.42;;;0.82;;
21206;SDS011;10761;48.532;8.026;2022-11-15T04:58:24;2.17;;;1.08;;
21206;SDS011;10761;48.532;8.026;2022-11-15T05:00:50;1.55;;;0.90;;
21206;SDS011;10761;48.532;8.026;2022-11-15T05:03:15;3.85;;;1.02;;
21206;SDS011;10761;48.532;8.026;2022-11-15T05:06:00;1.05;;;0.80;;
21206;SDS011;10761;48.532;8.026;2022-11-15T05:08:26;1.38;;;0.90;;
21206;SDS011;10761;48.532;8.026;2022-11-15T05:10:51;1.10;;;0.80;;
21206;SDS011;10761;48.532;8.026;2022-11-15T05:13:17;1.00;;;0.90;;
21206;SDS011;10761;48.532;8.026;2022-11-15T05:15:43;1.70;;;1.00;;
21206;SDS011;10761;48.532;8.026;2022-11-15T05:18:08;2.10;;;1.00;;
21206;SDS011;10761;48.532;8.026;2022-11-15T05:20:34;4.38;;;1.08;;
21206;SDS011;10761;48.532;8.026;2022-11-15T05:23:00;1.67;;;0.98;;
21206;SDS011;10761;48.532;8.026;2022-11-15T05:25:26;2.53;;;1.00;;
21206;SDS011;10761;48.532;8.026;2022-11-15T05:27:52;1.88;;;1.40;;
21206;SDS011;10761;48.532;8.026;2022-11-15T05:30:17;3.65;;;1.67;;
21206;SDS011;10761;48.532;8.026;2022-11-15T05:32:44;3.30;;;1.85;;
21206;SDS011;10761;48.532;8.026;2022-11-15T05:35:12;2.47;;;1.80;;
21206;SDS011;10761;48.532;8.026;2022-11-15T05:37:49;1.42;;;1.27;;
21206;SDS011;10761;48.532;8.026;2022-11-15T05:40:14;1.20;;;1.10;;
21206;SDS011;10761;48.532;8.026;2022-11-15T05:42:40;2.03;;;1.30;;
21206;SDS011;10761;48.532;8.026;2022-11-15T05:45:06;4.15;;;1.55;;
21206;SDS011;10761;48.532;8.026;2022-11-15T05:47:34;2.72;;;1.00;;
21206;SDS011;10761;48.532;8.026;2022-11-15T05:50:03;2.47;;;0.95;;
21206;SDS011;10761;48.532;8.026;2022-11-15T05:52:29;1.88;;;1.00;;
21206;SDS011;10761;48.532;8.026;2022-11-15T05:54:58;2.20;;;1.13;;
21206;SDS011;10761;48.532;8.026;2022-11-15T05:57:24;30.38;;;18.40;;
21206;SDS011;10761;48.532;8.026;2022-11-15T05:59:50;53.78;;;30.48;;
21206;SDS011;10761;48.532;8.026;2022-11-15T06:02:16;31.13;;;17.92;;
21206;SDS011;10761;48.532;8.026;2022-11-15T06:04:42;14.88;;;9.25;;
21206;SDS011;10761;48.532;8.026;2022-11-15T06:07:07;9.82;;;5.82;;
21206;SDS011;10761;48.532;8.026;2022-11-15T06:09:33;3.97;;;2.45;;
21206;SDS011;10761;48.532;8.026;2022-11-15T06:11:58;3.25;;;1.65;;
21206;SDS011;10761;48.532;8.026;2022-11-15T06:14:24;3.50;;;1.85;;
21206;SDS011;10761;48.532;8.026;2022-11-15T06:16:50;2.88;;;1.50;;
21206;SDS011;10761;48.532;8.026;2022-11-15T06:19:15;1.77;;;1.60;;
21206;SDS011;10761;48.532;8.026;2022-11-15T06:21:41;9.45;;;7.50;;
21206;SDS011;10761;48.532;8.026;2022-11-15T06:24:07;5.15;;;2.75;;
21206;SDS011;10761;48.532;8.026;2022-11-15T06:26:32;4.88;;;2.08;;
21206;SDS011;10761;48.532;8.026;2022-11-15T06:28:58;3.08;;;1.88;;
21206;SDS011;10761;48.532;8.026;2022-11-15T06:31:24;2.97;;;1.80;;
21206;SDS011;10761;48.532;8.026;2022-11-15T06:33:49;3.28;;;1.60;;
21206;SDS011;10761;48.532;8.026;2022-11-15T06:36:15;1.25;;;1.02;;
21206;SDS011;10761;48.532;8.026;2022-11-15T06:38:42;1.50;;;1.08;;
21206;SDS011;10761;48.532;8.026;2022-11-15T06:41:09;1.50;;;0.95;;
21206;SDS011;10761;48.532;8.026;2022-11-15T06:43:36;2.45;;;1.23;;
21206;SDS011;10761;48.532;8.026;2022-11-15T06:46:02;2.40;;;1.13;;
21206;SDS011;10761;48.532;8.026;2022-11-15T06:48:30;1.45;;;1.30;;
21206;SDS011;10761;48.532;8.026;2022-11-15T06:50:57;0.90;;;0.90;;
21206;SDS011;10761;48.532;8.026;2022-11-15T06:53:24;1.45;;;1.10;;
21206;SDS011;10761;48.532;8.026;2022-11-15T06:55:51;2.03;;;1.10;;
21206;SDS011;10761;48.532;8.026;2022-11-15T06:58:17;1.83;;;1.10;;
21206;SDS011;10761;48.532;8.026;2022-11-15T07:00:42;2.05;;;0.98;;
21206;SDS011;10761;48.532;8.026;2022-11-15T07:03:08;1.33;;;1.00;;
21206;SDS011;10761;48.532;8.026;2022-11-15T07:05:34;1.40;;;1.13;;
21206;SDS011;10761;48.532;8.026;2022-11-15T07:08:00;1.98;;;1.20;;
21206;SDS011;10761;48.532;8.026;2022-11-15T07:10:26;2.60;;;1.20;;
21206;SDS011;10761;48.532;8.026;2022-11-15T07:12:52;1.20;;;1.10;;
21206;SDS011;10761;48.532;8.026;2022-11-15T07:15:19;1.80;;;1.20;;
21206;SDS011;10761;48.532;8.026;2022-11-15T07:17:47;1.73;;;0.98;;
21206;SDS011;10761;48.532;8.026;2022-11-15T07:20:12;3.15;;;1.25;;
21206;SDS011;10761;48.532;8.026;2022-11-15T07:22:39;2.55;;;1.05;;
21206;SDS011;10761;48.532;8.026;2022-11-15T07:25:05;2.25;;;1.08;;
21206;SDS011;10761;48.532;8.026;2022-11-15T07:27:32;1.98;;;1.10;;
21206;SDS011;10761;48.532;8.026;2022-11-15T07:29:57;3.58;;;1.30;;
21206;SDS011;10761;48.532;8.026;2022-11-15T07:32:23;1.23;;;1.13;;
21206;SDS011;10761;48.532;8.026;2022-11-15T07:34:49;2.85;;;1.13;;
21206;SDS011;10761;48.532;8.026;2022-11-15T07:37:15;1.08;;;0.93;;
21206;SDS011;10761;48.532;8.026;2022-11-15T07:39:41;1.13;;;0.93;;
21206;SDS011;10761;48.532;8.026;2022-11-15T07:42:07;3.08;;;1.10;;
21206;SDS011;10761;48.532;8.026;2022-11-15T07:44:51;2.30;;;1.10;;
21206;SDS011;10761;48.532;8.026;2022-11-15T07:47:17;3.72;;;1.27;;
21206;SDS011;10761;48.532;8.026;2022-11-15T07:49:43;1.05;;;1.00;;
21206;SDS011;10761;48.532;8.026;2022-11-15T07:52:08;6.55;;;1.10;;
21206;SDS011;10761;48.532;8.026;2022-11-15T07:54:34;6.88;;;1.15;;
21206;SDS011;10761;48.532;8.026;2022-11-15T07:56:59;2.38;;;1.20;;
21206;SDS011;10761;48.532;8.026;2022-11-15T07:59:25;3.42;;;1.77;;
21206;SDS011;10761;48.532;8.026;2022-11-15T08:01:51;3.53;;;1.80;;
21206;SDS011;10761;48.532;8.026;2022-11-15T08:04:16;2.17;;;1.50;;
21206;SDS011;10761;48.532;8.026;2022-11-15T08:06:42;3.83;;;1.92;;
21206;SDS011;10761;48.532;8.026;2022-11-15T08:09:07;2.67;;;1.85;;
21206;SDS011;10761;48.532;8.026;2022-11-15T08:11:33;2.05;;;1.70;;
21206;SDS011;10761;48.532;8.026;2022-11-15T08:13:59;4.30;;;2.20;;
21206;SDS011;10761;48.532;8.026;2022-11-15T08:16:24;3.40;;;1.73;;
21206;SDS011;10761;48.532;8.026;2022-11-15T08:18:50;2.10;;;1.42;;
21206;SDS011;10761;48.532;8.026;2022-11-15T08:21:17;3.20;;;1.45;;
21206;SDS011;10761;48.532;8.026;2022-11-15T08:23:44;3.72;;;1.50;;
21206;SDS011;10761;48.532;8.026;2022-11-15T08:26:10;2.35;;;1.33;;
21206;SDS011;10761;48.532;8.026;2022-11-15T08:28:36;3.53;;;1.80;;
21206;SDS011;10761;48.532;8.026;2022-11-15T08:31:02;2.95;;;2.08;;
21206;SDS011;10761;48.532;8.026;2022-11-15T08:33:29;2.85;;;1.30;;
21206;SDS011;10761;48.532;8.026;2022-11-15T08:35:59;1.60;;;1.20;;
21206;SDS011;10761;48.532;8.026;2022-11-15T08:38:25;3.67;;;1.40;;
21206;SDS011;10761;48.532;8.026;2022-11-15T08:40:54;1.58;;;1.30;;
21206;SDS011;10761;48.532;8.026;2022-11-15T08:43:28;1.70;;;1.30;;
21206;SDS011;10761;48.532;8.026;2022-11-15T08:45:57;3.05;;;1.20;;
21206;SDS011;10761;48.532;8.026;2022-11-15T08:48:23;2.28;;;1.77;;
21206;SDS011;10761;48.532;8.026;2022-11-15T08:50:48;2.72;;;1.30;;
21206;SDS011;10761;48.532;8.026;2022-11-15T08:53:18;1.75;;;1.13;;
21206;SDS011;10761;48.532;8.026;2022-11-15T08:55:43;1.77;;;1.45;;
21206;SDS011;10761;48.532;8.026;2022-11-15T08:58:09;4.30;;;1.50;;
21206;SDS011;10761;48.532;8.026;2022-11-15T09:00:34;3.08;;;1.80;;
21206;SDS011;10761;48.532;8.026;2022-11-15T09:03:03;2.72;;;1.40;;
21206;SDS011;10761;48.532;8.026;2022-11-15T09:05:30;3.47;;;1.27;;
21206;SDS011;10761;48.532;8.026;2022-11-15T09:07:56;1.10;;;1.00;;
21206;SDS011;10761;48.532;8.026;2022-11-15T09:10:21;3.50;;;1.35;;
21206;SDS011;10761;48.532;8.026;2022-11-15T09:12:47;1.27;;;1.10;;
21206;SDS011;10761;48.532;8.026;2022-11-15T09:15:13;2.22;;;1.45;;
21206;SDS011;10761;48.532;8.026;2022-11-15T09:17:40;2.67;;;1.40;;
21206;SDS011;10761;48.532;8.026;2022-11-15T09:20:05;3.00;;;1.27;;
21206;SDS011;10761;48.532;8.026;2022-11-15T09:22:32;2.10;;;1.52;;
21206;SDS011;10761;48.532;8.026;2022-11-15T09:24:58;1.20;;;1.08;;
21206;SDS011;10761;48.532;8.026;2022-11-15T09:27:27;1.90;;;1.13;;
21206;SDS011;10761;48.532;8.026;2022-11-15T09:29:56;1.13;;;1.08;;
21206;SDS011;10761;48.532;8.026;2022-11-15T09:32:22;1.23;;;1.10;;
21206;SDS011;10761;48.532;8.026;2022-11-15T09:34:50;1.50;;;1.15;;
21206;SDS011;10761;48.532;8.026;2022-11-15T09:37:16;1.83;;;1.30;;
21206;SDS011;10761;48.532;8.026;2022-11-15T09:39:41;2.88;;;1.50;;
21206;SDS011;10761;48.532;8.026;2022-11-15T09:48:26;1.50;;;1.27;;
21206;SDS011;10761;48.532;8.026;2022-11-15T09:51:00;2.25;;;1.30;;
21206;SDS011;10761;48.532;8.026;2022-11-15T09:53:33;1.83;;;1.70;;
21206;SDS011;10761;48.532;8.026;2022-11-15T09:56:05;2.90;;;1.90;;
21206;SDS011;10761;48.532;8.026;2022-11-15T09:58:45;2.67;;;2.05;;
21206;SDS011;10761;48.532;8.026;2022-11-15T10:01:33;2.38;;;2.17;;
21206;SDS011;10761;48.532;8.026;2022-11-15T10:04:13;2.95;;;2.63;;
21206;SDS011;10761;48.532;8.026;2022-11-15T10:06:42;3.05;;;2.45;;
21206;SDS011;10761;48.532;8.026;2022-11-15T10:09:19;4.93;;;3.03;;
21206;SDS011;10761;48.532;8.026;2022-11-15T10:11:48;4.30;;;2.90;;
21206;SDS011;10761;48.532;8.026;2022-11-15T10:14:24;4.30;;;3.15;;
21206;SDS011;10761;48.532;8.026;2022-11-15T10:22:46;3.67;;;2.50;;
21206;SDS011;10761;48.532;8.026;2022-11-15T10:25:23;4.95;;;2.88;;
21206;SDS011;10761;48.532;8.026;2022-11-15T10:28:15;3.70;;;2.40;;
21206;SDS011;10761;48.532;8.026;2022-11-15T10:30:44;3.17;;;2.67;;
21206;SDS011;10761;48.532;8.026;2022-11-15T10:33:13;2.35;;;1.85;;
21206;SDS011;10761;48.532;8.026;2022-11-15T10:43:41;2.53;;;1.17;;
21206;SDS011;10761;48.532;8.026;2022-11-15T10:46:23;1.65;;;1.20;;
21206;SDS011;10761;48.532;8.026;2022-11-15T10:48:49;4.53;;;1.42;;
21206;SDS011;10761;48.532;8.026;2022-11-15T10:51:22;4.38;;;1.92;;
21206;SDS011;10761;48.532;8.026;2022-11-15T10:53:54;9.18;;;3.13;;
21206;SDS011;10761;48.532;8.026;2022-11-15T10:56:22;3.13;;;2.13;;
21206;SDS011;10761;48.532;8.026;2022-11-15T10:58:51;2.30;;;1.75;;
21206;SDS011;10761;48.532;8.026;2022-11-15T11:01:23;2.53;;;1.40;;
21206;SDS011;10761;48.532;8.026;2022-11-15T11:06:27;3.80;;;1.50;;
21206;SDS011;10761;48.532;8.026;2022-11-15T11:08:55;3.22;;;1.50;;
21206;SDS011;10761;48.532;8.026;2022-11-15T11:11:22;3.45;;;1.40;;
21206;SDS011;10761;48.532;8.026;2022-11-15T11:13:48;1.95;;;1.30;;
21206;SDS011;10761;48.532;8.026;2022-11-15T11:21:09;1.58;;;1.33;;
21206;SDS011;10761;48.532;8.026;2022-11-15T11:31:35;2.08;;;1.33;;
21206;SDS011;10761;48.532;8.026;2022-11-15T11:34:40;4.60;;;1.40;;
21206;SDS011;10761;48.532;8.026;2022-11-15T11:42:53;1.25;;;1.15;;
21206;SDS011;10761;48.532;8.026;2022-11-15T11:51:03;1.20;;;1.08;;
21206;SDS011;10761;48.532;8.026;2022-11-15T11:53:39;2.70;;;1.00;;
21206;SDS011;10761;48.532;8.026;2022-11-15T11:56:27;1.30;;;1.20;;
21206;SDS011;10761;48.532;8.026;2022-11-15T11:58:59;3.08;;;1.52;;
21206;SDS011;10761;48.532;8.026;2022-11-15T12:01:36;1.50;;;1.20;;
21206;SDS011;10761;48.532;8.026;2022-11-15T12:09:42;1.63;;;0.93;;
21206;SDS011;10761;48.532;8.026;2022-11-15T12:12:18;0.70;;;0.70;;
21206;SDS011;10761;48.532;8.026;2022-11-15T12:15:12;2.05;;;0.93;;
21206;SDS011;10761;48.532;8.026;2022-11-15T12:17:43;3.30;;;1.05;;
21206;SDS011;10761;48.532;8.026;2022-11-15T12:22:43;0.60;;;0.60;;
21206;SDS011;10761;48.532;8.026;2022-11-15T12:27:54;1.00;;;0.70;;
21206;SDS011;10761;48.532;8.026;2022-11-15T12:30:48;0.75;;;0.70;;
21206;SDS011;10761;48.532;8.026;2022-11-15T12:33:37;1.55;;;0.50;;
21206;SDS011;10761;48.532;8.026;2022-11-15T12:36:09;1.63;;;0.60;;
21206;SDS011;10761;48.532;8.026;2022-11-15T12:38:54;2.30;;;0.55;;
21206;SDS011;10761;48.532;8.026;2022-11-15T12:41:24;0.63;;;0.55;;
21206;SDS011;10761;48.532;8.026;2022-11-15T12:43:52;1.05;;;0.60;;
21206;SDS011;10761;48.532;8.026;2022-11-15T12:48:54;1.48;;;0.70;;
21206;SDS011;10761;48.532;8.026;2022-11-15T12:51:21;0.80;;;0.50;;
21206;SDS011;10761;48.532;8.026;2022-11-15T13:04:52;0.77;;;0.60;;
21206;SDS011;10761;48.532;8.026;2022-11-15T13:10:29;0.93;;;0.57;;
21206;SDS011;10761;48.532;8.026;2022-11-15T13:13:03;0.82;;;0.60;;
21206;SDS011;10761;48.532;8.026;2022-11-15T13:15:34;0.68;;;0.52;;
21206;SDS011;10761;48.532;8.026;2022-11-15T13:21:01;0.55;;;0.47;;
21206;SDS011;10761;48.532;8.026;2022-11-15T13:23:51;0.30;;;0.30;;
21206;SDS011;10761;48.532;8.026;2022-11-15T13:26:18;1.10;;;0.50;;
21206;SDS011;10761;48.532;8.026;2022-11-15T13:28:46;1.42;;;0.45;;
21206;SDS011;10761;48.532;8.026;2022-11-15T13:31:22;0.60;;;0.60;;
21206;SDS011;10761;48.532;8.026;2022-11-15T13:33:51;0.88;;;0.60;;
21206;SDS011;10761;48.532;8.026;2022-11-15T13:36:19;1.42;;;0.60;;
21206;SDS011;10761;48.532;8.026;2022-11-15T13:41:31;1.90;;;1.50;;
21206;SDS011;10761;48.532;8.026;2022-11-15T13:43:59;3.35;;;1.17;;
21206;SDS011;10761;48.532;8.026;2022-11-15T13:46:27;1.20;;;1.10;;
21206;SDS011;10761;48.532;8.026;2022-11-15T13:54:14;4.88;;;1.55;;
21206;SDS011;10761;48.532;8.026;2022-11-15T13:56:45;1.75;;;1.05;;
21206;SDS011;10761;48.532;8.026;2022-11-15T14:01:56;2.97;;;1.00;;
21206;SDS011;10761;48.532;8.026;2022-11-15T14:04:27;1.17;;;0.93;;
21206;SDS011;10761;48.532;8.026;2022-11-15T14:06:55;3.90;;;1.30;;
21206;SDS011;10761;48.532;8.026;2022-11-15T14:09:30;1.10;;;1.00;;
21206;SDS011;10761;48.532;8.026;2022-11-15T14:12:01;1.00;;;0.80;;
21206;SDS011;10761;48.532;8.026;2022-11-15T14:14:28;2.53;;;1.20;;
21206;SDS011;10761;48.532;8.026;2022-11-15T14:16:59;1.83;;;1.60;;
21206;SDS011;10761;48.532;8.026;2022-11-15T14:24:41;1.45;;;1.35;;
21206;SDS011;10761;48.532;8.026;2022-11-15T14:32:23;1.25;;;1.00;;
21206;SDS011;10761;48.532;8.026;2022-11-15T14:34:57;1.65;;;1.55;;
21206;SDS011;10761;48.532;8.026;2022-11-15T14:37:26;0.82;;;0.82;;
21206;SDS011;10761;48.532;8.026;2022-11-15T14:39:53;1.05;;;0.68;;
21206;SDS011;10761;48.532;8.026;2022-11-15T14:42:19;1.02;;;0.60;;
21206;SDS011;10761;48.532;8.026;2022-11-15T14:44:46;0.57;;;0.55;;
21206;SDS011;10761;48.532;8.026;2022-11-15T14:47:12;2.35;;;0.70;;
21206;SDS011;10761;48.532;8.026;2022-11-15T14:49:38;1.45;;;0.63;;
21206;SDS011;10761;48.532;8.026;2022-11-15T14:52:07;1.27;;;0.68;;
21206;SDS011;10761;48.532;8.026;2022-11-15T14:54:53;2.35;;;1.23;;
21206;SDS011;10761;48.532;8.026;2022-11-15T14:57:19;2.72;;;1.05;;
21206;SDS011;10761;48.532;8.026;2022-11-15T14:59:45;1.00;;;0.80;;
21206;SDS011;10761;48.532;8.026;2022-11-15T15:04:47;1.55;;;0.82;;
21206;SDS011;10761;48.532;8.026;2022-11-15T15:07:13;0.85;;;0.80;;
21206;SDS011;10761;48.532;8.026;2022-11-15T15:09:39;1.08;;;0.70;;
21206;SDS011;10761;48.532;8.026;2022-11-15T15:12:11;1.50;;;1.10;;
21206;SDS011;10761;48.532;8.026;2022-11-15T15:14:43;2.75;;;1.10;;
21206;SDS011;10761;48.532;8.026;2022-11-15T15:17:09;2.33;;;0.80;;
21206;SDS011;10761;48.532;8.026;2022-11-15T15:19:35;1.17;;;0.60;;
21206;SDS011;10761;48.532;8.026;2022-11-15T15:22:00;2.53;;;0.93;;
21206;SDS011;10761;48.532;8.026;2022-11-15T15:24:26;1.23;;;1.08;;
21206;SDS011;10761;48.532;8.026;2022-11-15T15:26:51;4.20;;;0.95;;
21206;SDS011;10761;48.532;8.026;2022-11-15T15:29:17;1.42;;;0.80;;
21206;SDS011;10761;48.532;8.026;2022-11-15T15:31:43;0.98;;;0.80;;
21206;SDS011;10761;48.532;8.026;2022-11-15T15:34:08;1.85;;;1.20;;
21206;SDS011;10761;48.532;8.026;2022-11-15T15:36:34;1.80;;;1.08;;
21206;SDS011;10761;48.532;8.026;2022-11-15T15:38:59;2.33;;;1.25;;
21206;SDS011;10761;48.532;8.026;2022-11-15T15:41:25;1.00;;;0.90;;
21206;SDS011;10761;48.532;8.026;2022-11-15T15:43:51;0.60;;;0.60;;
21206;SDS011;10761;48.532;8.026;2022-11-15T15:46:17;0.95;;;0.77;;
21206;SDS011;10761;48.532;8.026;2022-11-15T15:48:44;2.08;;;1.10;;
21206;SDS011;10761;48.532;8.026;2022-11-15T15:51:10;1.00;;;0.93;;
21206;SDS011;10761;48.532;8.026;2022-11-15T15:53:36;2.03;;;0.88;;
21206;SDS011;10761;48.532;8.026;2022-11-15T15:56:03;1.30;;;0.95;;
21206;SDS011;10761;48.532;8.026;2022-11-15T15:58:29;1.40;;;0.80;;
21206;SDS011;10761;48.532;8.026;2022-11-15T16:00:54;1.38;;;0.90;;
21206;SDS011;10761;48.532;8.026;2022-11-15T16:03:20;2.40;;;1.02;;
21206;SDS011;10761;48.532;8.026;2022-11-15T16:05:46;3.70;;;3.08;;
21206;SDS011;10761;48.532;8.026;2022-11-15T16:08:21;4.22;;;3.45;;
21206;SDS011;10761;48.532;8.026;2022-11-15T16:10:48;4.50;;;2.92;;
21206;SDS011;10761;48.532;8.026;2022-11-15T16:13:14;6.47;;;4.15;;
21206;SDS011;10761;48.532;8.026;2022-11-15T16:15:40;6.72;;;5.00;;
21206;SDS011;10761;48.532;8.026;2022-11-15T16:18:08;10.52;;;6.00;;
21206;SDS011;10761;48.532;8.026;2022-11-15T16:23:17;10.07;;;6.88;;
21206;SDS011;10761;48.532;8.026;2022-11-15T16:25:47;19.48;;;12.68;;
21206;SDS011;10761;48.532;8.026;2022-11-15T16:28:15;6.47;;;4.82;;
21206;SDS011;10761;48.532;8.026;2022-11-15T16:30:41;6.97;;;4.75;;
21206;SDS011;10761;48.532;8.026;2022-11-15T16:33:07;8.48;;;4.78;;
21206;SDS011;10761;48.532;8.026;2022-11-15T16:35:33;9.48;;;6.40;;
21206;SDS011;10761;48.532;8.026;2022-11-15T16:37:58;9.98;;;5.32;;
21206;SDS011;10761;48.532;8.026;2022-11-15T16:40:28;7.68;;;5.35;;
21206;SDS011;10761;48.532;8.026;2022-11-15T16:42:58;8.95;;;6.13;;
21206;SDS011;10761;48.532;8.026;2022-11-15T16:45:26;15.35;;;10.82;;
21206;SDS011;10761;48.532;8.026;2022-11-15T16:47:53;15.57;;;10.38;;
21206;SDS011;10761;48.532;8.026;2022-11-15T16:50:26;9.15;;;6.55;;
21206;SDS011;10761;48.532;8.026;2022-11-15T16:52:54;7.50;;;4.78;;
21206;SDS011;10761;48.532;8.026;2022-11-15T16:55:22;7.20;;;4.50;;
21206;SDS011;10761;48.532;8.026;2022-11-15T16:57:51;6.57;;;4.30;;
21206;SDS011;10761;48.532;8.026;2022-11-15T17:00:19;7.13;;;4.10;;
21206;SDS011;10761;48.532;8.026;2022-11-15T17:02:46;5.38;;;4.40;;
21206;SDS011;10761;48.532;8.026;2022-11-15T17:05:13;4.45;;;3.92;;
21206;SDS011;10761;48.532;8.026;2022-11-15T17:07:41;6.30;;;4.25;;
21206;SDS011;10761;48.532;8.026;2022-11-15T17:10:08;5.90;;;4.25;;
21206;SDS011;10761;48.532;8.026;2022-11-15T17:12:36;4.90;;;3.95;;
21206;SDS011;10761;48.532;8.026;2022-11-15T17:15:02;5.70;;;4.75;;
21206;SDS011;10761;48.532;8.026;2022-11-15T17:17:29;7.07;;;4.53;;